createdAt,value
2018-02-18T00:04:39.406Z,100460.86
2018-02-18T00:10:44.842Z,100459.91
2018-02-18T00:16:49.501Z,100464.83
2018-02-18T00:22:54.115Z,100468.05
2018-02-18T00:28:58.761Z,100467.41
2018-02-18T00:35:03.277Z,100472.80
2018-02-18T00:41:07.916Z,100476.39
2018-02-18T00:47:12.398Z,100480.28
2018-02-18T00:53:17.008Z,100479.80
2018-02-18T00:59:22.482Z,100487.53
2018-02-18T01:05:26.955Z,100487.89
2018-02-18T01:11:31.998Z,100497.58
2018-02-18T01:17:36.471Z,100511.63
2018-02-18T01:23:41.749Z,100513.11
2018-02-18T01:29:46.359Z,100508.57
2018-02-18T01:35:52.199Z,100514.11
2018-02-18T01:41:56.791Z,100525.42
2018-02-18T01:48:01.605Z,100521.70
2018-02-18T01:54:06.085Z,100522.67
2018-02-18T02:00:10.875Z,100526.58
2018-02-18T02:06:15.603Z,100521.81
2018-02-18T02:12:20.559Z,100524.94
2018-02-18T02:18:25.368Z,100523.04
2018-02-18T02:24:30.684Z,100520.83
2018-02-18T02:30:35.324Z,100522.01
2018-02-18T02:36:39.820Z,100517.97
2018-02-18T02:42:45.109Z,100523.14
2018-02-18T02:48:49.734Z,100513.97
2018-02-18T02:54:54.397Z,100509.46
2018-02-18T03:00:58.881Z,100517.18
2018-02-18T03:07:03.420Z,100522.54
2018-02-18T03:13:07.984Z,100526.23
2018-02-18T03:19:12.584Z,100518.72
2018-02-18T03:25:17.970Z,100521.55
2018-02-18T03:31:22.644Z,100521.15
2018-02-18T03:37:27.126Z,100517.58
2018-02-18T03:43:31.640Z,100518.32
2018-02-18T03:49:36.188Z,100513.82
2018-02-18T03:55:40.655Z,100520.28
2018-02-18T04:01:45.237Z,100525.92
2018-02-18T04:07:50.193Z,100525.44
2018-02-18T04:13:55.262Z,100530.80
2018-02-18T04:19:59.761Z,100537.53
2018-02-18T04:26:04.241Z,100534.23
2018-02-18T04:32:08.727Z,100537.77
2018-02-18T04:38:14.055Z,100543.19
2018-02-18T04:44:18.837Z,100555.16
2018-02-18T04:50:23.597Z,100553.84
2018-02-18T04:56:28.182Z,100557.85
2018-02-18T05:02:32.691Z,100569.23
2018-02-18T05:08:37.452Z,100569.95
2018-02-18T05:14:41.971Z,100576.34
2018-02-18T05:20:46.495Z,100579.25
2018-02-18T05:26:51.747Z,100578.67
2018-02-18T05:32:56.510Z,100584.89
2018-02-18T05:39:01.135Z,100584.48
2018-02-18T05:45:05.743Z,100584.15
2018-02-18T05:51:11.546Z,100582.91
2018-02-18T05:57:16.117Z,100588.21
2018-02-18T06:03:21.262Z,100593.49
2018-02-18T06:09:25.919Z,100600.34
2018-02-18T06:15:30.712Z,100598.90
2018-02-18T06:21:36.170Z,100602.83
2018-02-18T06:27:40.754Z,100600.23
2018-02-18T06:33:45.263Z,100602.01
2018-02-18T06:39:50.797Z,100601.09
2018-02-18T06:58:55.355Z,100591.32
2018-02-18T07:04:59.892Z,100602.32
2018-02-18T07:11:05.216Z,100606.34
2018-02-18T07:17:09.914Z,100612.38
2018-02-18T07:23:14.408Z,100612.08
2018-02-18T07:29:19.113Z,100614.34
2018-02-18T07:35:23.749Z,100613.73
2018-02-18T07:41:28.255Z,100621.07
2018-02-18T07:47:32.887Z,100617.50
2018-02-18T07:53:38.262Z,100615.45
2018-02-18T07:59:42.798Z,100600.44
2018-02-18T08:05:47.346Z,100596.58
2018-02-18T08:11:53.756Z,100595.25
2018-02-18T08:17:59.050Z,100600.95
2018-02-18T08:24:04.347Z,100604.80
2018-02-18T08:30:10.772Z,100612.90
2018-02-18T08:36:15.272Z,100607.70
2018-02-18T08:42:19.985Z,100608.92
2018-02-18T08:48:24.524Z,100595.23
2018-02-18T08:54:29.024Z,100593.05
2018-02-18T09:00:33.761Z,100593.70
2018-02-18T09:06:38.240Z,100599.70
2018-02-18T09:12:43.570Z,100598.07
2018-02-18T09:18:48.857Z,100596.45
2018-02-18T09:24:53.761Z,100610.53
2018-02-18T09:30:58.685Z,100601.05
2018-02-18T09:37:03.477Z,100595.18
2018-02-18T09:43:07.979Z,100598.89
2018-02-18T09:49:13.238Z,100599.20
2018-02-18T09:55:17.760Z,100604.59
2018-02-18T10:01:22.575Z,100600.28
2018-02-18T10:07:27.051Z,100608.90
2018-02-18T10:13:31.533Z,100608.02
2018-02-18T10:19:36.078Z,100612.74
2018-02-18T10:25:41.468Z,100612.83
2018-02-18T10:31:46.986Z,100607.48
2018-02-18T10:37:51.595Z,100609.95
2018-02-18T10:43:57.029Z,100612.19
2018-02-18T10:50:03.013Z,100603.27
2018-02-18T10:56:07.485Z,100609.47
2018-02-18T11:02:12.265Z,100605.52
2018-02-18T11:08:16.765Z,100600.13
2018-02-18T11:14:22.004Z,100578.80
2018-02-18T11:20:26.568Z,100585.22
2018-02-18T11:26:31.053Z,100582.06
2018-02-18T11:32:35.606Z,100587.53
2018-02-18T11:38:40.184Z,100572.44
2018-02-18T11:44:44.992Z,100571.73
2018-02-18T11:50:50.504Z,100569.85
2018-02-18T11:56:55.951Z,100572.34
2018-02-18T12:03:00.469Z,100565.53
2018-02-18T12:09:05.767Z,100555.44
2018-02-18T12:15:10.558Z,100548.63
2018-02-18T12:21:15.075Z,100542.54
2018-02-18T12:27:19.707Z,100544.78
2018-02-18T12:33:24.849Z,100525.00
2018-02-18T12:39:29.323Z,100516.27
2018-02-18T12:45:33.821Z,100517.87
2018-02-18T12:51:38.289Z,100511.20
2018-02-18T12:57:42.844Z,100507.20
2018-02-18T13:03:48.201Z,100493.49
2018-02-18T13:09:54.657Z,100485.84
2018-02-18T13:15:59.258Z,100475.38
2018-02-18T13:22:03.818Z,100471.17
2018-02-18T13:28:08.320Z,100471.41
2018-02-18T13:34:12.799Z,100471.95
2018-02-18T13:40:17.271Z,100450.47
2018-02-18T13:46:21.998Z,100436.32
2018-02-18T13:52:26.474Z,100439.97
2018-02-18T13:58:31.120Z,100444.38
2018-02-18T14:04:35.619Z,100434.23
2018-02-18T14:10:40.195Z,100436.92
2018-02-18T14:16:44.967Z,100425.93
2018-02-18T14:22:51.305Z,100422.45
2018-02-18T14:28:55.895Z,100407.36
2018-02-18T14:35:00.398Z,100408.16
2018-02-18T14:41:05.641Z,100412.52
2018-02-18T14:47:28.000Z,100415.27
2018-02-18T14:53:50.280Z,100412.38
2018-02-18T14:59:55.108Z,100412.45
2018-02-18T15:05:59.753Z,100406.30
2018-02-18T15:12:04.296Z,100412.84
2018-02-18T15:18:09.691Z,100419.58
2018-02-18T15:24:14.201Z,100411.87
2018-02-18T15:30:19.654Z,100412.41
2018-02-18T15:36:24.167Z,100400.81
2018-02-18T15:42:28.647Z,100398.27
2018-02-18T15:48:33.985Z,100399.56
2018-02-18T15:54:38.503Z,100392.99
2018-02-18T16:00:42.999Z,100398.86
2018-02-18T16:06:48.302Z,100396.74
2018-02-18T16:12:52.936Z,100399.06
2018-02-18T16:18:57.446Z,100395.89
2018-02-18T16:25:03.419Z,100389.81
2018-02-18T16:31:07.883Z,100386.17
2018-02-18T16:37:12.419Z,100391.27
2018-02-18T16:43:16.988Z,100393.43
2018-02-18T16:49:22.055Z,100395.47
2018-02-18T16:55:26.714Z,100382.41
2018-02-18T17:01:31.197Z,100386.84
2018-02-18T17:07:35.739Z,100377.45
2018-02-18T17:13:40.344Z,100372.78
2018-02-18T17:19:44.989Z,100376.58
2018-02-18T17:25:49.453Z,100370.09
2018-02-18T17:31:54.228Z,100368.03
2018-02-18T17:37:58.702Z,100359.55
2018-02-18T17:44:03.206Z,100364.67
2018-02-18T17:50:07.855Z,100365.25
2018-02-18T17:56:12.444Z,100365.38
2018-02-18T18:02:17.718Z,100361.06
2018-02-18T18:08:22.419Z,100359.19
2018-02-18T18:14:26.886Z,100362.45
2018-02-18T18:20:31.487Z,100350.88
2018-02-18T18:26:36.080Z,100363.68
2018-02-18T18:32:41.827Z,100364.12
2018-02-18T18:38:46.308Z,100371.89
2018-02-18T18:44:51.011Z,100370.44
2018-02-18T18:50:55.528Z,100367.47
2018-02-18T18:57:00.780Z,100368.17
2018-02-18T19:03:05.315Z,100356.33
2018-02-18T19:09:09.912Z,100355.42
2018-02-18T19:15:14.755Z,100353.53
2018-02-18T19:21:19.411Z,100352.23
2018-02-18T19:27:23.970Z,100358.22
2018-02-18T19:33:28.469Z,100363.45
2018-02-18T19:39:32.949Z,100357.88
2018-02-18T19:45:37.453Z,100362.11
2018-02-18T19:51:41.960Z,100349.39
2018-02-18T19:57:46.431Z,100347.98
2018-02-18T20:03:50.950Z,100350.78
2018-02-18T20:09:55.461Z,100357.30
2018-02-18T20:16:00.737Z,100355.62
2018-02-18T20:22:05.199Z,100348.87
2018-02-18T20:28:09.733Z,100344.06
2018-02-18T20:34:14.264Z,100342.48
2018-02-18T20:40:19.056Z,100333.47
2018-02-18T20:46:23.756Z,100332.50
2018-02-18T20:52:29.367Z,100327.47
2018-02-18T20:58:34.916Z,100324.11
2018-02-18T21:04:39.582Z,100324.18
2018-02-18T21:10:44.195Z,100313.17
2018-02-18T21:16:48.824Z,100308.10
2018-02-18T21:22:54.384Z,100301.78
2018-02-18T21:28:58.939Z,100299.75
2018-02-18T21:35:03.426Z,100296.15
2018-02-18T21:41:07.960Z,100289.02
2018-02-18T21:47:13.207Z,100279.59
2018-02-18T21:53:17.681Z,100275.98
2018-02-18T21:59:22.202Z,100266.07
2018-02-18T22:05:27.431Z,100268.93
2018-02-18T22:11:31.972Z,100267.39
2018-02-18T22:17:36.589Z,100271.11
2018-02-18T22:23:41.117Z,100269.16
2018-02-18T22:29:45.615Z,100267.45
2018-02-18T22:35:50.877Z,100261.29
2018-02-18T22:41:55.464Z,100267.02
2018-02-18T22:48:00.031Z,100259.97
2018-02-18T22:54:04.524Z,100259.63
2018-02-18T23:00:09.003Z,100263.08
2018-02-18T23:06:13.557Z,100256.42
2018-02-18T23:12:18.051Z,100251.16
2018-02-18T23:18:22.564Z,100254.45
2018-02-18T23:24:27.048Z,100249.75
2018-02-18T23:30:31.529Z,100251.48
2018-02-18T23:36:35.996Z,100251.76
2018-02-18T23:42:40.469Z,100242.74
2018-02-18T23:48:44.943Z,100245.13
2018-02-18T23:54:50.349Z,100249.36
